Time;durP1;ratioP1;P1;durP2;ratioP2;P2;SDS_P1;SDS_P2;PMS_P1;PMS_P2;Temp;Humidity;BMP_temperature;BMP_pressure;BME280_temperature;BME280_humidity;BME280_pressure;Samples;Min_cycle;Max_cycle;Signal;HPM_P1;HPM_P2
2022/09/25 00:02:31;;;;;;;25.65;19.98;;;;;;;10.94;100.00;99945.89;2806682;83;20984;-92
2022/09/25 00:06:32;;;;;;;23.83;19.25;;;;;;;10.96;100.00;99953.25;2826337;83;21029;-92
2022/09/25 00:10:39;;;;;;;27.65;21.10;;;;;;;10.85;100.00;99948.06;2824973;82;21589;-92
2022/09/25 00:14:41;;;;;;;25.10;18.62;;;;;;;10.81;100.00;99945.33;2822114;83;21123;-91
2022/09/25 00:22:55;;;;;;;29.82;21.20;;;;;;;11.03;100.00;99951.39;2676235;86;21070;-92
2022/09/25 00:26:58;;;;;;;25.43;19.48;;;;;;;11.19;100.00;99954.84;2660732;87;21662;-92
2022/09/25 00:31:00;;;;;;;22.07;18.60;;;;;;;11.26;99.62;99953.30;2680955;87;21100;-93
2022/09/25 00:35:01;;;;;;;22.37;17.30;;;;;;;11.32;98.28;99946.59;2671253;87;21010;-94
2022/09/25 00:39:03;;;;;;;24.55;17.90;;;;;;;11.32;97.51;99942.12;2676158;87;21034;-91
2022/09/25 00:43:13;;;;;;;26.90;19.62;;;;;;;11.33;97.76;99931.81;2687960;87;21054;-89
2022/09/25 00:47:19;;;;;;;26.37;19.65;;;;;;;11.36;97.47;99935.53;2681847;87;21099;-90
2022/09/25 00:51:27;;;;;;;22.75;19.15;;;;;;;11.31;97.27;99936.92;2661506;88;21121;-92
2022/09/25 00:55:30;;;;;;;22.95;18.15;;;;;;;11.29;97.48;99931.72;2682516;87;21098;-91
2022/09/25 00:59:39;;;;;;;22.93;19.07;;;;;;;11.25;97.11;99929.84;2763466;81;21031;-92
2022/09/25 01:03:41;;;;;;;28.27;20.15;;;;;;;11.22;96.64;99930.13;2818826;83;21051;-89
2022/09/25 01:07:47;;;;;;;44.08;24.60;;;;;;;11.18;96.92;99928.70;2823404;83;21038;-90
2022/09/25 01:11:48;;;;;;;99.90;62.10;;;;;;;11.17;96.73;99930.19;2821050;82;21015;-92
2022/09/25 01:16:10;;;;;;;54.95;34.15;;;;;;;11.14;97.32;99935.28;2807608;82;21046;-93
2022/09/25 01:20:41;;;;;;;31.97;20.70;;;;;;;11.02;96.76;99935.91;2799007;83;21085;-90
2022/09/25 01:25:07;;;;;;;29.37;21.25;;;;;;;10.54;100.00;99941.44;2791276;82;21106;-91
2022/09/25 01:29:16;;;;;;;27.87;19.30;;;;;;;10.21;100.00;99938.03;2795970;82;21582;-90
2022/09/25 01:33:26;;;;;;;31.23;20.90;;;;;;;10.06;100.00;99937.06;2784308;83;21035;-93
2022/09/25 01:37:39;;;;;;;33.75;21.33;;;;;;;9.91;100.00;99939.19;2815942;82;21042;-92
2022/09/25 01:41:57;;;;;;;24.60;19.05;;;;;;;9.90;100.00;99934.02;2789983;83;21040;-91
2022/09/25 01:46:20;;;;;;;28.45;20.62;;;;;;;10.00;100.00;99931.78;2821106;83;21590;-90
2022/09/25 01:50:33;;;;;;;31.45;20.37;;;;;;;10.20;100.00;99937.67;2801444;82;20980;-93
2022/09/25 01:54:43;;;;;;;45.52;27.45;;;;;;;10.07;100.00;99935.23;2803891;83;21083;-91
2022/09/25 01:58:55;;;;;;;44.25;26.52;;;;;;;10.03;100.00;99934.67;2819418;83;21103;-91
2022/09/25 02:03:11;;;;;;;44.93;28.07;;;;;;;10.15;100.00;99940.25;2822744;83;21023;-90
2022/09/25 02:07:19;;;;;;;40.63;27.17;;;;;;;10.25;100.00;99936.81;2818781;83;21524;-92
2022/09/25 02:11:24;;;;;;;34.98;25.05;;;;;;;10.30;100.00;99934.59;2824478;82;21008;-91
2022/09/25 02:15:34;;;;;;;35.25;24.05;;;;;;;10.36;100.00;99931.89;2807179;83;21048;-92
2022/09/25 02:24:21;;;;;;;35.50;22.55;;;;;;;10.43;100.00;99935.72;2792306;83;21019;-92
2022/09/25 02:28:23;;;;;;;34.88;24.77;;;;;;;10.43;99.46;99936.58;2723064;85;21037;-92
2022/09/25 02:32:32;;;;;;;38.92;22.65;;;;;;;10.42;99.77;99934.05;2731368;85;21593;-91
2022/09/25 02:36:34;;;;;;;32.88;20.88;;;;;;;10.38;99.25;99937.41;2816807;83;21015;-92
2022/09/25 02:40:59;;;;;;;32.95;21.25;;;;;;;10.36;99.19;99935.38;2819508;83;21047;-91
2022/09/25 02:45:43;;;;;;;31.45;21.95;;;;;;;10.35;98.33;99930.22;2789923;83;21165;-90
2022/09/25 02:50:17;;;;;;;32.05;23.27;;;;;;;10.35;98.86;99931.04;2739725;85;21106;-92
2022/09/25 02:54:35;;;;;;;38.95;24.15;;;;;;;10.35;99.33;99931.04;2718818;85;21153;-93
2022/09/25 02:58:54;;;;;;;35.43;23.92;;;;;;;10.10;99.56;99923.86;2811423;83;21126;-92
2022/09/25 03:02:58;;;;;;;26.70;22.42;;;;;;;10.08;100.00;99923.16;2799634;83;21039;-94
2022/09/25 03:07:01;;;;;;;28.87;23.38;;;;;;;10.10;100.00;99926.52;2890371;80;20995;-92
2022/09/25 03:11:12;;;;;;;28.77;22.70;;;;;;;10.12;100.00;99927.70;2880951;80;21566;-91
2022/09/25 03:15:13;;;;;;;34.78;26.12;;;;;;;10.11;100.00;99924.22;2907818;80;20975;-91
2022/09/25 03:19:15;;;;;;;39.98;23.05;;;;;;;10.07;100.00;99928.59;2878747;80;21071;-92
2022/09/25 03:23:16;;;;;;;33.10;24.95;;;;;;;9.98;100.00;99924.42;2859563;81;21506;-93
2022/09/25 03:27:19;;;;;;;29.52;23.80;;;;;;;9.99;100.00;99921.27;2888923;80;21024;-92
2022/09/25 03:31:21;;;;;;;24.80;20.40;;;;;;;9.96;100.00;99921.06;2875229;80;21038;-92
2022/09/25 03:35:22;;;;;;;30.62;23.40;;;;;;;9.98;99.88;99923.58;2904360;80;21011;-92
2022/09/25 03:39:24;;;;;;;30.00;24.95;;;;;;;9.84;99.30;99914.12;2901082;80;20975;-92
2022/09/25 03:43:25;;;;;;;32.28;24.40;;;;;;;9.82;100.00;99922.21;2908322;80;21506;-92
2022/09/25 03:47:26;;;;;;;33.20;22.90;;;;;;;9.90;100.00;99915.42;2904382;80;21007;-90
2022/09/25 03:51:30;;;;;;;28.32;22.93;;;;;;;9.96;100.00;99908.25;2888288;81;21003;-91
2022/09/25 03:55:32;;;;;;;33.02;23.38;;;;;;;9.95;100.00;99902.58;2905138;80;21018;-93
2022/09/25 03:59:33;;;;;;;31.02;23.98;;;;;;;9.64;100.00;99906.03;2905968;80;21538;-94
2022/09/25 04:03:35;;;;;;;27.80;21.90;;;;;;;9.42;100.00;99901.66;2893036;80;21046;-89
2022/09/25 04:07:36;;;;;;;37.67;24.40;;;;;;;9.36;100.00;99904.84;2871557;81;21526;-92
2022/09/25 04:11:37;;;;;;;35.83;24.47;;;;;;;9.42;100.00;99897.68;2877952;80;20964;-93
2022/09/25 04:15:41;;;;;;;32.53;24.20;;;;;;;9.61;100.00;99898.80;2907247;80;21030;-93
2022/09/25 04:19:42;;;;;;;35.63;23.32;;;;;;;9.76;100.00;99904.65;2911706;80;21129;-92
2022/09/25 04:24:47;;;;;;;27.05;23.00;;;;;;;9.83;100.00;99893.84;2913178;80;21403;-93
2022/09/25 04:27:50;;;;;;;26.27;20.05;;;;;;;9.96;100.00;99904.27;2888682;80;21019;-93
2022/09/25 04:33:45;;;;;;;25.90;19.32;;;;;;;9.94;99.77;99903.09;2809183;83;21065;-92
2022/09/25 04:35:55;;;;;;;32.88;21.30;;;;;;;9.78;99.10;99905.36;2817825;83;21091;-91
2022/09/25 04:39:57;;;;;;;25.12;20.00;;;;;;;9.43;100.00;99901.55;2819430;82;21015;-93
2022/09/25 04:43:58;;;;;;;29.40;20.90;;;;;;;9.15;100.00;99897.69;2819383;83;21018;-93
2022/09/25 04:48:00;;;;;;;31.17;21.77;;;;;;;8.95;100.00;99898.00;2831593;83;21012;-92
2022/09/25 04:52:02;;;;;;;26.37;21.73;;;;;;;8.96;100.00;99898.36;2841468;82;21059;-92
2022/09/25 04:56:10;;;;;;;30.30;21.77;;;;;;;9.05;100.00;99889.64;2814426;83;21422;-92
2022/09/25 05:00:18;;;;;;;29.45;21.50;;;;;;;9.16;100.00;99890.58;2801781;83;21007;-92
2022/09/25 05:04:16;;;;;;;31.62;22.05;;;;;;;9.28;100.00;99893.05;2789845;82;21059;-91
2022/09/25 05:08:17;;;;;;;33.50;21.57;;;;;;;9.40;100.00;99892.98;2820007;82;21071;-92
2022/09/25 05:12:19;;;;;;;28.10;22.60;;;;;;;9.60;100.00;99893.98;2825939;82;20983;-92
2022/09/25 05:16:21;;;;;;;28.85;20.88;;;;;;;9.81;100.00;99894.47;2811914;83;21574;-92
2022/09/25 05:20:22;;;;;;;26.97;20.55;;;;;;;10.00;100.00;99894.58;2812239;83;21063;-92
2022/09/25 05:24:23;;;;;;;23.77;19.40;;;;;;;10.14;100.00;99901.86;2807786;82;21596;-91
2022/09/25 05:28:24;;;;;;;28.40;22.32;;;;;;;10.46;100.00;99901.39;2837559;82;21012;-89
2022/09/25 05:32:26;;;;;;;24.57;18.77;;;;;;;10.40;100.00;99901.40;2785349;83;21032;-88
2022/09/25 05:36:27;;;;;;;24.57;19.87;;;;;;;10.10;100.00;99901.74;2805898;83;21016;-88
2022/09/25 05:40:29;;;;;;;24.40;17.02;;;;;;;10.11;100.00;99898.97;2818206;82;21061;-87
2022/09/25 05:44:31;;;;;;;36.93;22.62;;;;;;;10.56;100.00;99907.09;2832584;82;21047;-88
2022/09/25 05:48:33;;;;;;;23.87;19.12;;;;;;;11.14;100.00;99903.34;2807749;83;21048;-87
2022/09/25 05:52:35;;;;;;;26.97;21.77;;;;;;;11.33;100.00;99909.66;2826367;82;21039;-85
2022/09/25 05:56:36;;;;;;;23.47;19.02;;;;;;;11.34;100.00;99910.01;2817662;82;21610;-87
2022/09/25 06:00:37;;;;;;;26.82;19.87;;;;;;;11.43;100.00;99920.66;2821671;83;21035;-87
2022/09/25 06:04:39;;;;;;;33.45;22.42;;;;;;;11.57;100.00;99907.40;2824211;83;21059;-87
2022/09/25 06:08:40;;;;;;;27.82;21.30;;;;;;;11.73;100.00;99915.31;2817442;83;21011;-87
2022/09/25 06:12:41;;;;;;;27.58;20.27;;;;;;;11.93;98.37;99906.80;2830522;83;21480;-87
2022/09/25 06:16:43;;;;;;;30.37;19.87;;;;;;;12.11;98.69;99900.24;2847439;83;21011;-86
2022/09/25 06:20:44;;;;;;;30.27;20.77;;;;;;;12.14;97.75;99897.28;2831686;83;21055;-87
2022/09/25 06:24:47;;;;;;;21.90;18.45;;;;;;;11.94;100.00;99888.97;2772517;83;21024;-87
2022/09/25 06:28:48;;;;;;;21.85;19.35;;;;;;;11.96;100.00;99888.33;2836746;82;22117;-87
2022/09/25 06:32:58;;;;;;;22.75;19.73;;;;;;;12.02;100.00;99883.80;2815893;83;21059;-86
2022/09/25 06:37:00;;;;;;;26.10;19.30;;;;;;;12.12;100.00;99880.59;2828049;83;20995;-87
2022/09/25 06:41:01;;;;;;;24.55;18.87;;;;;;;12.31;100.00;99885.50;2819383;83;21055;-88
2022/09/25 06:45:04;;;;;;;23.22;18.65;;;;;;;12.62;100.00;99885.23;2817060;83;21102;-87
2022/09/25 06:49:05;;;;;;;22.42;17.45;;;;;;;12.93;100.00;99887.55;2818319;83;21074;-87
2022/09/25 06:53:07;;;;;;;20.23;16.65;;;;;;;13.15;97.11;99890.77;2808837;83;21027;-87
2022/09/25 06:57:09;;;;;;;21.17;16.50;;;;;;;13.25;96.95;99898.70;2819703;83;21035;-88
2022/09/25 07:01:12;;;;;;;21.80;17.27;;;;;;;13.54;97.57;99898.99;2836254;83;21498;-88
2022/09/25 07:05:14;;;;;;;24.55;17.98;;;;;;;13.65;95.49;99897.91;2841092;83;21036;-88
2022/09/25 07:09:15;;;;;;;28.73;18.55;;;;;;;13.83;92.97;99900.05;2809653;83;21019;-89
2022/09/25 07:13:18;;;;;;;20.20;16.97;;;;;;;14.12;93.12;99896.20;2810763;83;21043;-87
2022/09/25 07:17:19;;;;;;;21.62;17.17;;;;;;;14.12;91.65;99896.71;2818741;82;21012;-88
2022/09/25 07:21:23;;;;;;;24.23;15.53;;;;;;;14.31;91.32;99902.83;2809526;83;21514;-88
2022/09/25 07:25:24;;;;;;;21.42;14.78;;;;;;;14.31;88.96;99906.33;2827970;83;21070;-87
2022/09/25 07:29:26;;;;;;;23.00;17.50;;;;;;;14.36;91.68;99898.69;2818674;83;21011;-86
2022/09/25 07:33:27;;;;;;;26.00;16.02;;;;;;;14.72;90.05;99899.01;2832932;83;21039;-87
2022/09/25 07:37:29;;;;;;;21.07;12.65;;;;;;;14.92;87.11;99910.78;2818088;83;20968;-86
2022/09/25 07:41:30;;;;;;;17.62;15.55;;;;;;;15.03;87.04;99909.63;2820041;83;21522;-87
2022/09/25 07:45:32;;;;;;;19.27;13.83;;;;;;;15.36;86.38;99902.47;2818506;83;21534;-88
2022/09/25 07:49:34;;;;;;;19.90;14.07;;;;;;;15.61;84.85;99904.33;2860155;81;21100;-88
2022/09/25 07:53:36;;;;;;;20.57;13.85;;;;;;;15.85;83.48;99906.98;2858687;81;20991;-89
2022/09/25 07:57:37;;;;;;;19.40;15.18;;;;;;;16.09;82.75;99893.73;2784310;84;21035;-88
2022/09/25 08:01:39;;;;;;;20.50;14.10;;;;;;;16.12;80.78;99890.20;2805295;83;21044;-89
2022/09/25 08:05:40;;;;;;;14.65;11.95;;;;;;;16.15;82.05;99887.66;2779944;84;21051;-89
2022/09/25 08:09:41;;;;;;;18.67;13.98;;;;;;;16.13;79.55;99890.54;2770585;84;21034;-87
2022/09/25 08:13:44;;;;;;;18.95;15.30;;;;;;;16.03;81.14;99887.20;2858233;82;21025;-88
2022/09/25 08:17:46;;;;;;;20.75;15.10;;;;;;;16.10;82.68;99880.13;2855635;81;20999;-89
2022/09/25 08:21:47;;;;;;;20.77;14.63;;;;;;;16.17;83.04;99880.80;2820670;82;21554;-90
2022/09/25 08:25:48;;;;;;;18.25;13.60;;;;;;;16.33;83.01;99874.53;2841761;82;21039;-89
2022/09/25 08:29:49;;;;;;;18.80;14.15;;;;;;;16.48;83.52;99873.28;2822841;83;21031;-90
2022/09/25 08:33:53;;;;;;;22.67;15.38;;;;;;;16.56;83.61;99863.87;2832569;83;21026;-89
2022/09/25 08:37:56;;;;;;;17.92;12.70;;;;;;;16.74;83.61;99858.22;2836577;83;21015;-92
2022/09/25 08:41:59;;;;;;;19.52;14.58;;;;;;;16.92;81.50;99863.83;2810542;83;21602;-90
2022/09/25 08:50:25;;;;;;;23.27;15.32;;;;;;;17.16;79.27;99855.29;2817701;83;21107;-89
2022/09/25 08:54:30;;;;;;;18.95;12.90;;;;;;;17.30;80.03;99857.73;2823774;83;21079;-91
2022/09/25 08:58:41;;;;;;;16.77;11.65;;;;;;;17.38;80.90;99852.27;2812475;83;21012;-91
2022/09/25 09:02:47;;;;;;;17.20;14.53;;;;;;;17.48;79.51;99836.70;2805034;83;21035;-91
2022/09/25 09:06:53;;;;;;;17.50;13.55;;;;;;;17.62;79.48;99832.89;2809466;83;21071;-90
2022/09/25 09:11:02;;;;;;;21.02;13.03;;;;;;;17.77;80.93;99831.55;2782861;83;21253;-91
2022/09/25 09:15:24;;;;;;;14.85;11.55;;;;;;;17.99;78.03;99822.59;2799497;83;21609;-90
2022/09/25 09:19:25;;;;;;;14.95;12.37;;;;;;;18.17;79.15;99820.55;2841488;82;21008;-91
2022/09/25 09:24:11;;;;;;;15.30;12.88;;;;;;;18.29;78.03;99822.25;2732904;84;21042;-90
2022/09/25 09:28:21;;;;;;;15.83;10.08;;;;;;;18.46;78.99;99818.83;2847864;82;21027;-91
2022/09/25 09:32:47;;;;;;;11.05;9.90;;;;;;;18.55;77.78;99820.40;2812642;83;21052;-91
2022/09/25 09:37:03;;;;;;;;;;;;;;;18.54;74.09;99831.66;2792052;83;21047;-90
2022/09/25 09:41:39;;;;;;;9.00;8.10;;;;;;;18.67;74.48;99822.08;2690357;86;20162;-90
2022/09/25 09:45:55;;;;;;;14.28;9.58;;;;;;;18.73;73.25;99814.57;2707401;86;21054;-89
2022/09/25 09:50:02;;;;;;;13.13;10.18;;;;;;;18.77;72.99;99810.99;2678175;86;21070;-89
2022/09/25 09:54:24;;;;;;;12.37;8.15;;;;;;;18.73;71.71;99807.02;2699271;86;21078;-90
2022/09/25 09:58:53;;;;;;;12.03;9.50;;;;;;;18.75;73.23;99800.92;2689675;86;21035;-88
2022/09/25 10:03:20;;;;;;;8.98;8.05;;;;;;;18.79;70.49;99802.20;2705496;86;21053;-90
2022/09/25 10:07:23;;;;;;;9.23;7.60;;;;;;;18.79;72.38;99800.36;2684902;87;21126;-90
2022/09/25 10:11:26;;;;;;;8.98;7.00;;;;;;;18.80;70.30;99803.87;2694281;87;21078;-90
2022/09/25 10:15:32;;;;;;;8.98;5.80;;;;;;;18.75;70.50;99798.23;2738995;83;21070;-90
2022/09/25 10:19:40;;;;;;;14.68;11.60;;;;;;;18.89;69.15;99789.27;2832985;83;21091;-90
2022/09/25 10:23:53;;;;;;;8.73;7.87;;;;;;;18.98;70.68;99789.47;2812873;83;21848;-89
2022/09/25 10:27:56;;;;;;;16.87;11.55;;;;;;;19.06;72.18;99780.92;2795618;83;21046;-89
2022/09/25 10:32:04;;;;;;;9.58;8.68;;;;;;;19.24;72.32;99779.11;2819972;82;21115;-90
2022/09/25 10:36:06;;;;;;;7.90;6.92;;;;;;;19.40;69.72;99776.12;2813561;83;20999;-90
2022/09/25 10:40:31;;;;;;;8.50;6.83;;;;;;;19.51;67.58;99770.70;2787535;83;21079;-90
2022/09/25 10:44:37;;;;;;;8.88;6.67;;;;;;;19.51;63.87;99768.01;2778079;84;21039;-90
2022/09/25 10:53:02;;;;;;;8.43;6.83;;;;;;;19.61;64.21;99760.06;2778145;83;21080;-90
2022/09/25 10:57:37;;;;;;;8.48;5.80;;;;;;;19.76;66.77;99751.34;2784758;83;21027;-89
2022/09/25 11:01:41;;;;;;;10.68;7.35;;;;;;;19.81;63.58;99754.26;2818784;83;21035;-90
2022/09/25 11:05:48;;;;;;;9.33;6.78;;;;;;;19.92;62.97;99749.37;2792027;84;21063;-90
2022/09/25 11:09:50;;;;;;;8.43;7.08;;;;;;;19.97;63.78;99754.49;2793600;83;21083;-89
2022/09/25 11:13:54;;;;;;;9.13;7.40;;;;;;;20.07;64.82;99751.42;2812866;82;21018;-87
2022/09/25 11:17:57;;;;;;;8.78;6.87;;;;;;;20.16;64.14;99740.43;2805415;83;20984;-90
2022/09/25 11:22:27;;;;;;;7.50;6.67;;;;;;;20.25;65.82;99741.40;2815371;83;21055;-90
2022/09/25 11:26:34;;;;;;;6.37;5.72;;;;;;;20.24;63.96;99741.09;2810641;83;21465;-89
2022/09/25 11:30:40;;;;;;;7.87;6.00;;;;;;;20.29;63.95;99735.08;2810932;82;21055;-90
2022/09/25 11:35:19;;;;;;;6.15;5.15;;;;;;;20.32;66.79;99734.67;2812564;83;21091;-90
2022/09/25 11:44:33;;;;;;;6.25;4.65;;;;;;;20.65;68.18;99734.42;2816182;83;21051;-88
2022/09/25 11:48:45;;;;;;;6.67;6.03;;;;;;;20.77;61.48;99734.64;2827738;82;21063;-89
2022/09/25 11:53:21;;;;;;;5.37;4.87;;;;;;;20.96;60.80;99728.44;2905038;81;21069;-89
2022/09/25 11:57:55;;;;;;;8.20;5.47;;;;;;;21.16;62.13;99728.14;2924206;80;21590;-87
2022/09/25 12:02:20;;;;;;;6.67;4.60;;;;;;;21.22;60.44;99724.08;2900577;80;21007;-88
2022/09/25 12:06:38;;;;;;;5.67;4.13;;;;;;;21.25;60.64;99726.86;2911664;80;21075;-89
2022/09/25 12:11:10;;;;;;;7.30;5.28;;;;;;;21.25;59.07;99721.45;2884623;80;20983;-89
2022/09/25 12:15:52;;;;;;;4.60;4.20;;;;;;;21.36;59.20;99714.06;2887979;80;21114;-89
2022/09/25 12:20:17;;;;;;;6.60;5.67;;;;;;;21.53;60.12;99706.84;2885766;80;21032;-88
2022/09/25 12:24:42;;;;;;;5.60;5.05;;;;;;;21.52;59.28;99699.24;2892273;80;21043;-89
2022/09/25 12:33:41;;;;;;;6.45;4.40;;;;;;;21.38;59.46;99696.25;2837160;78;73934;-91
2022/09/25 12:37:48;;;;;;;4.17;3.67;;;;;;;21.41;57.34;99687.70;2730433;84;21342;-93
2022/09/25 12:42:07;;;;;;;4.53;4.05;;;;;;;21.48;56.66;99691.75;2759160;83;22092;-92
2022/09/25 12:46:23;;;;;;;4.83;4.37;;;;;;;21.51;55.60;99688.62;2775432;84;21062;-93
2022/09/25 12:50:36;;;;;;;7.20;4.65;;;;;;;21.53;54.46;99684.67;2774509;84;21051;-93
2022/09/25 12:54:54;;;;;;;4.50;3.85;;;;;;;21.49;56.37;99689.36;2773260;84;21027;-93
2022/09/25 12:59:04;;;;;;;5.30;3.83;;;;;;;21.52;55.52;99683.00;2779889;84;21094;-91
2022/09/25 13:03:22;;;;;;;5.62;4.97;;;;;;;21.48;55.25;99684.48;2753077;86;21149;-91
2022/09/25 13:07:44;;;;;;;5.67;4.42;;;;;;;21.47;54.59;99682.82;2748352;85;21062;-92
2022/09/25 13:11:51;;;;;;;4.05;3.50;;;;;;;21.46;54.85;99678.45;2818130;83;21561;-93
2022/09/25 13:16:00;;;;;;;4.10;3.65;;;;;;;21.45;53.59;99674.09;2777054;84;21019;-93
2022/09/25 13:20:30;;;;;;;3.87;3.10;;;;;;;21.40;54.81;99675.23;2775474;84;21094;-94
2022/09/25 13:24:38;;;;;;;3.52;3.22;;;;;;;21.36;54.15;99679.41;2772051;84;21015;-94
2022/09/25 13:28:57;;;;;;;4.30;3.30;;;;;;;21.31;54.95;99679.22;2773649;84;21071;-93
2022/09/25 13:33:02;;;;;;;3.10;2.80;;;;;;;21.18;55.90;99680.89;2770985;84;21028;-92
2022/09/25 13:37:07;;;;;;;3.90;3.50;;;;;;;21.06;56.87;99677.19;2808756;84;21530;-92
2022/09/25 13:41:13;;;;;;;8.50;3.87;;;;;;;20.97;57.73;99673.33;2802192;83;21035;-92
2022/09/25 13:45:33;;;;;;;3.75;3.15;;;;;;;20.95;57.64;99666.48;2754339;86;21028;-94
2022/09/25 13:49:35;;;;;;;3.58;2.98;;;;;;;20.92;57.20;99667.73;2754766;86;21043;-93
2022/09/25 13:54:01;;;;;;;5.30;4.83;;;;;;;20.88;57.00;99663.79;2729054;85;21117;-95
2022/09/25 13:58:02;;;;;;;5.83;4.20;;;;;;;20.85;58.91;99662.86;2727644;84;21074;-94
2022/09/25 14:02:35;;;;;;;4.28;3.55;;;;;;;20.80;58.02;99655.88;2738983;85;21047;-95
2022/09/25 14:06:40;;;;;;;4.03;3.62;;;;;;;20.76;57.36;99651.91;2756716;86;21569;-94
2022/09/25 14:10:47;;;;;;;6.42;4.17;;;;;;;20.74;58.28;99647.23;2732497;85;21046;-95
2022/09/25 14:15:04;;;;;;;3.80;3.50;;;;;;;20.73;58.70;99648.27;2757099;86;21074;-94
2022/09/25 14:19:07;;;;;;;3.42;3.20;;;;;;;20.68;58.05;99651.08;2741643;86;21023;-93
2022/09/25 14:23:17;;;;;;;8.83;5.65;;;;;;;20.63;59.17;99634.64;2760406;84;21091;-94
2022/09/25 14:27:26;;;;;;;4.30;3.87;;;;;;;20.61;59.23;99638.61;2758729;86;21111;-96
2022/09/25 14:31:39;;;;;;;42.25;21.02;;;;;;;20.55;61.38;99633.01;2733684;86;21023;-94
2022/09/25 14:36:01;;;;;;;14.10;9.63;;;;;;;20.46;63.67;99623.97;2813308;83;21031;-94
2022/09/25 14:40:08;;;;;;;16.12;10.45;;;;;;;20.31;64.09;99630.39;2813777;83;21074;-94
2022/09/25 14:44:33;;;;;;;15.70;9.85;;;;;;;20.19;65.10;99628.81;2813527;83;21022;-95
2022/09/25 14:48:43;;;;;;;9.48;6.55;;;;;;;20.08;64.07;99620.80;2598646;89;21065;-95
2022/09/25 14:52:46;;;;;;;6.80;5.30;;;;;;;20.01;66.38;99617.23;2628252;89;21049;-93
2022/09/25 14:56:53;;;;;;;7.15;4.92;;;;;;;19.95;66.68;99619.41;2626502;89;21021;-94
2022/09/25 15:01:06;;;;;;;9.63;7.47;;;;;;;19.92;67.56;99619.30;2625667;89;21095;-95
2022/09/25 15:05:27;;;;;;;8.95;5.95;;;;;;;19.90;68.78;99615.13;2625858;90;21116;-95
2022/09/25 15:09:46;;;;;;;7.85;5.65;;;;;;;19.87;67.96;99615.53;2628552;89;21108;-94
2022/09/25 15:13:44;;;;;;;8.33;5.70;;;;;;;19.78;68.96;99604.91;2625630;90;21108;-94
2022/09/25 15:17:56;;;;;;;7.83;6.12;;;;;;;19.69;70.30;99604.79;2606271;90;21082;-95
2022/09/25 15:21:58;;;;;;;9.65;7.60;;;;;;;19.65;69.30;99596.77;2636647;86;21607;-95
2022/09/25 15:26:00;;;;;;;17.52;12.20;;;;;;;19.61;69.76;99600.91;2803237;84;21035;-94
2022/09/25 15:30:01;;;;;;;15.95;9.33;;;;;;;19.59;69.79;99601.12;2813126;83;21059;-94
2022/09/25 15:34:12;;;;;;;8.53;7.53;;;;;;;19.54;69.71;99598.17;2786081;84;21082;-94
2022/09/25 15:38:13;;;;;;;10.15;7.80;;;;;;;19.52;70.38;99597.05;2816579;83;21102;-93
2022/09/25 15:42:15;;;;;;;10.93;8.95;;;;;;;19.49;70.98;99592.06;2810519;84;21011;-94
2022/09/25 15:46:36;;;;;;;10.53;7.78;;;;;;;19.45;71.63;99589.96;2809323;84;21047;-93
2022/09/25 15:50:42;;;;;;;10.88;8.65;;;;;;;19.41;71.97;99581.44;2808763;84;21094;-91
2022/09/25 15:54:45;;;;;;;9.38;6.90;;;;;;;19.38;72.42;99592.13;2810268;84;21019;-92
2022/09/25 15:59:06;;;;;;;10.45;6.62;;;;;;;19.34;73.30;99588.14;2808003;84;21070;-94
2022/09/25 16:07:38;;;;;;;10.85;7.25;;;;;;;19.30;74.78;99591.46;2806355;83;21518;-92
2022/09/25 16:11:39;;;;;;;10.38;7.90;;;;;;;19.23;75.78;99581.45;2733641;84;21007;-93
2022/09/25 16:15:46;;;;;;;26.82;14.60;;;;;;;19.04;80.19;99579.48;2779514;84;21026;-93
2022/09/25 16:20:01;;;;;;;142.80;87.60;;;;;;;18.80;82.58;99575.72;2779236;84;21085;-94
2022/09/25 16:24:08;;;;;;;163.73;103.43;;;;;;;18.55;81.62;99573.98;2809300;83;21062;-93
2022/09/25 16:28:21;;;;;;;79.80;47.75;;;;;;;18.40;82.55;99578.12;2808340;84;21098;-91
2022/09/25 16:32:24;;;;;;;44.42;27.45;;;;;;;18.31;82.13;99581.45;2772184;85;21062;-94
2022/09/25 16:36:29;;;;;;;62.45;32.45;;;;;;;18.34;81.90;99576.18;2724592;85;21114;-92
2022/09/25 16:40:37;;;;;;;67.10;33.40;;;;;;;18.36;83.09;99576.81;2729366;85;21090;-93
2022/09/25 16:44:45;;;;;;;47.48;25.50;;;;;;;18.34;82.46;99574.34;2753575;84;21066;-96
2022/09/25 16:49:00;;;;;;;33.10;18.98;;;;;;;18.34;81.90;99575.68;2758028;84;21119;-91
2022/09/25 16:53:02;;;;;;;26.80;17.23;;;;;;;18.32;81.90;99578.23;2750046;84;20996;-93
2022/09/25 16:57:03;;;;;;;16.35;12.55;;;;;;;18.22;81.46;99587.48;2755869;84;21090;-94
2022/09/25 17:05:37;;;;;;;26.27;16.60;;;;;;;18.08;80.78;99586.54;2830989;82;21149;-94
2022/09/25 17:09:39;;;;;;;23.22;19.23;;;;;;;18.03;81.68;99585.44;2830661;82;20995;-96
2022/09/25 17:13:42;;;;;;;30.97;17.05;;;;;;;17.92;81.78;99584.88;2810947;82;21731;-95
2022/09/25 17:17:43;;;;;;;23.30;16.93;;;;;;;17.82;82.79;99582.50;2828835;83;21053;-94
2022/09/25 17:21:51;;;;;;;25.17;15.38;;;;;;;17.76;83.21;99585.96;2816506;83;21784;-92
2022/09/25 17:26:18;;;;;;;21.60;17.55;;;;;;;17.68;84.75;99586.06;2783194;84;21667;-94
2022/09/25 17:30:20;;;;;;;21.52;15.35;;;;;;;17.60;84.91;99580.81;2815154;83;21003;-95
2022/09/25 17:34:28;;;;;;;19.90;12.45;;;;;;;17.58;85.87;99581.52;2790967;84;21030;-96
2022/09/25 17:38:31;;;;;;;17.07;12.80;;;;;;;17.58;87.59;99580.17;2781417;84;21048;-93
2022/09/25 17:42:33;;;;;;;16.48;10.68;;;;;;;17.53;89.91;99591.48;2782530;81;21418;-91
2022/09/25 17:46:53;;;;;;;11.90;9.55;;;;;;;17.46;89.76;99600.80;2780681;83;21455;-90
2022/09/25 17:54:58;;;;;;;14.47;10.95;;;;;;;17.33;89.37;99599.31;2812529;83;21079;-96
2022/09/25 17:59:01;;;;;;;16.60;11.35;;;;;;;17.36;89.07;99599.75;2796830;81;21035;-94
2022/09/25 18:03:03;;;;;;;14.73;10.08;;;;;;;17.35;88.42;99599.95;2694606;86;39683;-95
2022/09/25 18:07:05;;;;;;;16.85;12.63;;;;;;;17.34;88.58;99595.61;2718307;86;22431;-95
2022/09/25 18:11:10;;;;;;;12.00;10.78;;;;;;;17.36;88.45;99589.53;2639095;86;21043;-94
2022/09/25 18:15:12;;;;;;;15.50;10.50;;;;;;;17.27;88.90;99578.86;2670947;86;21100;-93
2022/09/25 18:23:37;;;;;;;10.13;7.28;;;;;;;17.11;88.86;99573.71;2667205;87;21536;-96
2022/09/25 18:27:40;;;;;;;7.72;6.72;;;;;;;17.08;88.92;99578.94;2669614;87;21099;-94
2022/09/25 18:31:45;;;;;;;10.75;7.87;;;;;;;17.08;89.15;99582.12;2715032;86;21090;-96
2022/09/25 18:35:46;;;;;;;7.87;6.47;;;;;;;17.02;89.80;99584.21;2704603;86;21082;-92
2022/09/25 18:39:48;;;;;;;7.00;5.65;;;;;;;16.96;91.27;99587.94;2712171;86;21035;-91
2022/09/25 18:43:50;;;;;;;7.50;5.25;;;;;;;16.88;91.27;99597.41;2714192;86;21098;-91
2022/09/25 18:47:51;;;;;;;5.47;4.97;;;;;;;16.83;91.74;99597.98;2724969;86;21011;-90
2022/09/25 18:51:52;;;;;;;7.62;6.78;;;;;;;16.84;91.51;99596.97;2675688;87;21150;-92
2022/09/25 18:55:57;;;;;;;10.32;7.85;;;;;;;16.86;91.54;99595.42;2667087;87;21064;-90
2022/09/25 18:59:58;;;;;;;7.37;6.28;;;;;;;16.79;91.66;99586.44;2686316;86;21551;-90
2022/09/25 19:03:59;;;;;;;9.60;6.75;;;;;;;16.68;92.45;99581.83;2676949;87;21103;-90
2022/09/25 19:08:02;;;;;;;8.28;7.17;;;;;;;16.64;92.93;99582.41;2674683;87;21586;-91
2022/09/25 19:12:06;;;;;;;11.73;7.83;;;;;;;16.58;93.14;99577.75;2674199;87;21086;-91
2022/09/25 19:16:09;;;;;;;8.28;6.20;;;;;;;16.59;93.40;99573.55;2719424;86;21075;-89
2022/09/25 19:20:10;;;;;;;11.68;9.40;;;;;;;16.65;94.20;99572.81;2731995;86;21088;-91
2022/09/25 19:24:12;;;;;;;11.08;9.25;;;;;;;16.63;93.73;99569.47;2728091;86;21036;-90
2022/09/25 19:28:13;;;;;;;9.65;8.23;;;;;;;16.61;93.32;99567.48;2730563;86;21102;-91
2022/09/25 19:32:16;;;;;;;10.28;8.55;;;;;;;16.61;93.35;99566.14;2730537;86;21578;-91
2022/09/25 19:36:29;;;;;;;16.45;12.60;;;;;;;16.63;94.67;99569.47;2722336;85;21027;-93
2022/09/25 19:40:38;;;;;;;19.95;12.60;;;;;;;16.64;94.05;99560.41;2734029;85;21772;-91
2022/09/25 19:44:40;;;;;;;13.70;9.93;;;;;;;16.62;94.04;99562.44;2734502;86;21138;-91
2022/09/25 19:48:44;;;;;;;19.20;11.63;;;;;;;16.61;94.74;99552.72;2731970;86;21039;-92
2022/09/25 19:52:46;;;;;;;14.65;10.80;;;;;;;16.60;94.79;99551.55;2720994;86;21094;-92